Time,TemperatureF,DewpointF,PressureIn,WindDirection,WindDirectionDegrees,WindSpeedMPH,WindSpeedGustMPH,Humidity,HourlyPrecipIn,Conditions,Clouds,dailyrainin,SolarRadiationWatts/m^2,SoftwareType,DateUTC
2013-11-07 00:11:00,30.0,10.0,-100.00,WNW,290,0.0,5.0,42,0.00,,,0.00,0.000000,,2013-11-07 08:11:00,
2013-11-07 00:22:00,30.0,10.0,-100.00,WNW,290,0.0,5.0,42,0.00,,,0.00,0.000000,,2013-11-07 08:22:00,
2013-11-07 00:32:00,30.0,10.0,-100.00,WNW,290,0.0,5.0,42,0.00,,,0.00,0.000000,,2013-11-07 08:32:00,
2013-11-07 01:11:00,30.0,10.0,-100.00,WNW,290,1.0,4.0,43,0.00,,,0.00,0.000000,,2013-11-07 09:11:00,
2013-11-07 01:21:00,30.0,10.0,-100.00,WNW,290,1.0,4.0,43,0.00,,,0.00,0.000000,,2013-11-07 09:21:00,
2013-11-07 01:33:00,30.0,10.0,-100.00,WNW,290,1.0,4.0,43,0.00,,,0.00,0.000000,,2013-11-07 09:33:00,
2013-11-07 02:13:00,29.0,10.0,-100.00,WNW,290,0.0,4.0,45,0.00,,,0.00,0.000000,,2013-11-07 10:13:00,
2013-11-07 02:22:00,29.0,10.0,-100.00,WNW,290,0.0,4.0,45,0.00,,,0.00,0.000000,,2013-11-07 10:22:00,
2013-11-07 02:32:00,29.0,10.0,-100.00,WNW,290,0.0,4.0,45,0.00,,,0.00,0.000000,,2013-11-07 10:32:00,
2013-11-07 03:11:00,29.0,11.0,-100.00,WNW,290,0.0,4.0,46,0.00,,,0.00,0.000000,,2013-11-07 11:11:00,
2013-11-07 03:22:00,29.0,11.0,-100.00,WNW,290,0.0,4.0,46,0.00,,,0.00,0.000000,,2013-11-07 11:22:00,
2013-11-07 04:12:00,29.0,11.0,-100.00,WNW,289,3.0,4.0,47,0.00,,,0.00,0.000000,,2013-11-07 12:12:00,
2013-11-07 04:22:00,29.0,11.0,-100.00,WNW,289,3.0,4.0,47,0.00,,,0.00,0.000000,,2013-11-07 12:22:00,
2013-11-07 04:32:00,29.0,11.0,-100.00,WNW,289,3.0,4.0,47,0.00,,,0.00,0.000000,,2013-11-07 12:32:00,
2013-11-07 04:52:00,28.0,11.0,-100.00,WNW,291,0.0,4.0,48,0.00,,,0.00,0.000000,,2013-11-07 12:52:00,
2013-11-07 05:01:00,28.0,11.0,-100.00,WNW,291,0.0,4.0,48,0.00,,,0.00,0.000000,,2013-11-07 13:01:00,
2013-11-07 05:12:00,28.0,11.0,-100.00,WNW,291,0.0,4.0,48,0.00,,,0.00,0.000000,,2013-11-07 13:12:00,
2013-11-07 05:21:00,28.0,11.0,-100.00,WNW,291,0.0,4.0,48,0.00,,,0.00,0.000000,,2013-11-07 13:21:00,
2013-11-07 05:31:00,28.0,11.0,-100.00,WNW,291,0.0,4.0,48,0.00,,,0.00,0.000000,,2013-11-07 13:31:00,
2013-11-07 06:11:00,28.0,11.0,-100.00,WNW,290,0.0,4.0,48,0.00,,,0.00,0.000000,,2013-11-07 14:11:00,
2013-11-07 06:22:00,28.0,11.0,-100.00,WNW,290,0.0,4.0,48,0.00,,,0.00,0.000000,,2013-11-07 14:22:00,
2013-11-07 06:32:00,28.0,11.0,-100.00,WNW,290,0.0,4.0,48,0.00,,,0.00,0.000000,,2013-11-07 14:32:00,
2013-11-07 07:11:00,28.0,11.0,-100.00,WNW,290,0.0,4.0,48,0.00,,,0.00,2.000000,,2013-11-07 15:11:00,
2013-11-07 07:22:00,28.0,11.0,-100.00,WNW,290,0.0,4.0,48,0.00,,,0.00,2.000000,,2013-11-07 15:22:00,
2013-11-07 07:33:00,28.0,11.0,-100.00,WNW,290,0.0,4.0,48,0.00,,,0.00,2.000000,,2013-11-07 15:33:00,
2013-11-07 09:12:00,50.0,24.0,-100.00,East,92,0.0,3.0,36,-99.99,,,0.00,240.000000,,2013-11-07 17:12:00,
2013-11-07 09:22:00,50.0,24.0,-100.00,East,92,0.0,3.0,36,-99.99,,,0.00,240.000000,,2013-11-07 17:22:00,
2013-11-07 09:32:00,50.0,24.0,-100.00,East,92,0.0,3.0,36,-99.99,,,0.00,240.000000,,2013-11-07 17:32:00,
2013-11-07 10:12:00,57.0,25.0,-100.00,East,99,0.0,5.0,29,0.00,,,0.00,450.000000,,2013-11-07 18:12:00,
2013-11-07 10:23:00,57.0,25.0,-100.00,East,99,0.0,5.0,29,0.00,,,0.00,450.000000,,2013-11-07 18:23:00,
2013-11-07 10:32:00,57.0,25.0,-100.00,East,99,0.0,5.0,29,0.00,,,0.00,450.000000,,2013-11-07 18:32:00,
2013-11-07 11:11:00,65.0,19.0,-100.00,ESE,108,4.0,7.0,17,0.00,,,0.00,697.000000,,2013-11-07 19:11:00,
2013-11-07 11:21:00,65.0,19.0,-100.00,ESE,108,4.0,7.0,17,0.00,,,0.00,697.000000,,2013-11-07 19:21:00,
2013-11-07 11:32:00,65.0,19.0,-100.00,ESE,108,4.0,7.0,17,0.00,,,0.00,697.000000,,2013-11-07 19:32:00,
2013-11-07 12:11:00,67.0,21.0,-100.00,ESE,123,3.0,10.0,17,0.00,,,-99.99,724.000000,,2013-11-07 20:11:00,
2013-11-07 12:21:00,67.0,21.0,-100.00,ESE,123,3.0,10.0,17,0.00,,,-99.99,724.000000,,2013-11-07 20:21:00,
2013-11-07 12:32:00,67.0,21.0,-100.00,ESE,123,3.0,10.0,17,0.00,,,-99.99,724.000000,,2013-11-07 20:32:00,
2013-11-07 12:34:00,66.0,21.0,-100.00,WSW,251,4.0,9.0,18,0.00,,,0.00,763.000000,,2013-11-07 20:34:00,
2013-11-07 13:12:00,66.0,21.0,-100.00,WSW,251,4.0,9.0,18,0.00,,,0.00,763.000000,,2013-11-07 21:12:00,
2013-11-07 13:22:00,66.0,21.0,-100.00,WSW,251,4.0,9.0,18,0.00,,,0.00,763.000000,,2013-11-07 21:22:00,
2013-11-07 14:13:00,63.0,20.0,-100.00,ESE,108,4.0,9.0,19,0.00,,,0.00,457.000000,,2013-11-07 22:13:00,
2013-11-07 14:23:00,63.0,20.0,-100.00,ESE,108,4.0,9.0,19,0.00,,,0.00,457.000000,,2013-11-07 22:23:00,
2013-11-07 14:33:00,63.0,20.0,-100.00,ESE,108,4.0,9.0,19,0.00,,,0.00,457.000000,,2013-11-07 22:33:00,
2013-11-07 14:34:00,64.0,21.0,-100.00,ESE,109,2.0,8.0,19,0.00,,,0.00,378.000000,,2013-11-07 22:34:00,
2013-11-07 15:12:00,64.0,21.0,-100.00,ESE,109,2.0,8.0,19,0.00,,,0.00,378.000000,,2013-11-07 23:12:00,
2013-11-07 15:22:00,64.0,21.0,-100.00,ESE,109,2.0,8.0,19,0.00,,,0.00,378.000000,,2013-11-07 23:22:00,
2013-11-07 16:12:00,62.0,18.0,-100.00,East,95,1.0,6.0,18,0.00,,,0.00,312.000000,,2013-11-08 00:12:00,
2013-11-07 16:22:00,62.0,18.0,-100.00,East,95,1.0,6.0,18,0.00,,,0.00,312.000000,,2013-11-08 00:22:00,
2013-11-07 16:32:00,62.0,18.0,-100.00,East,95,1.0,6.0,18,0.00,,,0.00,312.000000,,2013-11-08 00:32:00,
2013-11-07 17:12:00,54.0,16.0,-100.00,NW,312,0.0,6.0,22,0.00,,,0.00,111.000000,,2013-11-08 01:12:00,
2013-11-07 17:22:00,54.0,16.0,-100.00,NW,312,0.0,6.0,22,0.00,,,0.00,111.000000,,2013-11-08 01:22:00,
2013-11-07 17:32:00,54.0,16.0,-100.00,NW,312,0.0,6.0,22,0.00,,,0.00,111.000000,,2013-11-08 01:32:00,
2013-11-07 18:12:00,43.0,11.0,-100.00,WNW,285,2.0,4.0,27,0.00,,,0.00,3.000000,,2013-11-08 02:12:00,
2013-11-07 18:21:00,43.0,11.0,-100.00,WNW,285,2.0,4.0,27,0.00,,,0.00,3.000000,,2013-11-08 02:21:00,
2013-11-07 18:32:00,43.0,11.0,-100.00,WNW,285,2.0,4.0,27,0.00,,,0.00,3.000000,,2013-11-08 02:32:00,
2013-11-07 18:34:00,40.0,11.0,-100.00,WNW,292,1.0,4.0,30,0.00,,,0.00,0.000000,,2013-11-08 02:34:00,
2013-11-07 19:11:00,40.0,11.0,-100.00,WNW,292,1.0,4.0,30,0.00,,,0.00,0.000000,,2013-11-08 03:11:00,
2013-11-07 19:21:00,40.0,11.0,-100.00,WNW,292,1.0,4.0,30,0.00,,,0.00,0.000000,,2013-11-08 03:21:00,
2013-11-07 19:34:00,36.0,11.0,-100.00,WNW,290,3.0,4.0,35,0.00,,,0.00,0.000000,,2013-11-08 03:34:00,
2013-11-07 20:13:00,36.0,11.0,-100.00,WNW,290,3.0,4.0,35,0.00,,,0.00,0.000000,,2013-11-08 04:13:00,
2013-11-07 20:23:00,36.0,11.0,-100.00,WNW,290,3.0,4.0,35,0.00,,,0.00,0.000000,,2013-11-08 04:23:00,
2013-11-07 21:13:00,34.0,11.0,-100.00,WNW,292,0.0,4.0,37,0.00,,,0.00,0.000000,,2013-11-08 05:13:00,
2013-11-07 21:23:00,34.0,11.0,-100.00,WNW,292,0.0,4.0,37,0.00,,,0.00,0.000000,,2013-11-08 05:23:00,
2013-11-07 21:33:00,34.0,11.0,-100.00,WNW,292,0.0,4.0,37,0.00,,,0.00,0.000000,,2013-11-08 05:33:00,
2013-11-07 22:13:00,33.0,11.0,-100.00,WNW,289,0.0,4.0,39,0.00,,,0.00,0.000000,,2013-11-08 06:13:00,
2013-11-07 22:23:00,33.0,11.0,-100.00,WNW,289,0.0,4.0,39,0.00,,,0.00,0.000000,,2013-11-08 06:23:00,
2013-11-07 22:32:00,33.0,11.0,-100.00,WNW,289,0.0,4.0,39,0.00,,,0.00,0.000000,,2013-11-08 06:32:00,
2013-11-07 23:11:00,32.0,10.0,-100.00,WNW,290,2.0,4.0,40,0.00,,,0.00,0.000000,,2013-11-08 07:11:00,
2013-11-07 23:21:00,32.0,10.0,-100.00,WNW,290,2.0,4.0,40,0.00,,,0.00,0.000000,,2013-11-08 07:21:00,
2013-11-07 23:32:00,32.0,10.0,-100.00,WNW,290,2.0,4.0,40,0.00,,,0.00,0.000000,,2013-11-08 07:32:00,